Time;durP1;ratioP1;P1;durP2;ratioP2;P2;SDS_P1;SDS_P2;PMS_P1;PMS_P2;Temp;Humidity;BMP_temperature;BMP_pressure;BME280_temperature;BME280_humidity;BME280_pressure;Samples;Min_cycle;Max_cycle;Signal;HPM_P1;HPM_P2
2021/01/26 00:01:04;;;;;;;2.25;0.47;;;34.80;44.60;;;;;;5011389;28;20390;-80
2021/01/26 00:03:31;;;;;;;1.60;0.40;;;35.00;43.30;;;;;;5011585;28;20379;-79
2021/01/26 00:05:58;;;;;;;1.53;0.43;;;34.90;43.60;;;;;;5011574;28;20402;-79
2021/01/26 00:08:25;;;;;;;3.22;0.45;;;35.10;44.10;;;;;;5011382;28;20406;-80
2021/01/26 00:10:52;;;;;;;1.10;0.50;;;35.50;42.80;;;;;;5011559;28;20375;-80
2021/01/26 00:13:19;;;;;;;0.70;0.40;;;35.70;41.30;;;;;;5011089;28;20371;-80
2021/01/26 00:15:47;;;;;;;2.50;0.60;;;36.00;41.80;;;;;;5011154;28;20379;-80
2021/01/26 00:18:14;;;;;;;1.73;0.50;;;36.30;42.90;;;;;;5011189;28;20390;-80
2021/01/26 00:20:43;;;;;;;2.85;0.40;;;36.90;39.20;;;;;;5011205;28;20888;-81
2021/01/26 00:23:12;;;;;;;2.25;0.40;;;37.50;40.10;;;;;;5011058;28;20854;-80
2021/01/26 00:25:41;;;;;;;1.08;0.30;;;37.90;37.90;;;;;;5011501;28;20383;-81
2021/01/26 00:28:10;;;;;;;2.08;0.52;;;38.20;37.60;;;;;;5010939;28;20443;-80
2021/01/26 00:30:39;;;;;;;2.08;0.60;;;38.60;36.20;;;;;;5011087;28;20467;-80
2021/01/26 00:33:10;;;;;;;1.65;0.45;;;38.50;37.20;;;;;;5011111;28;20396;-80
2021/01/26 00:35:38;;;;;;;1.40;0.50;;;38.70;40.00;;;;;;5010937;28;20373;-81
2021/01/26 00:38:06;;;;;;;1.13;0.50;;;38.60;37.40;;;;;;5010588;28;20441;-79
2021/01/26 00:40:33;;;;;;;1.67;0.45;;;38.60;35.00;;;;;;5010641;28;20387;-79
2021/01/26 00:43:00;;;;;;;3.17;0.40;;;38.50;36.30;;;;;;5010769;28;20385;-79
2021/01/26 00:45:29;;;;;;;2.40;0.65;;;38.50;36.70;;;;;;5010759;28;20386;-79
2021/01/26 00:47:56;;;;;;;3.22;0.47;;;38.50;37.00;;;;;;5010595;28;20484;-79
2021/01/26 00:50:26;;;;;;;2.42;0.50;;;38.80;38.50;;;;;;5010708;28;20438;-81
2021/01/26 00:52:54;;;;;;;0.85;0.32;;;38.90;35.80;;;;;;5007866;28;20759;-80
2021/01/26 00:55:23;;;;;;;1.33;0.50;;;39.40;37.80;;;;;;5009707;28;20498;-80
2021/01/26 00:57:51;;;;;;;1.35;0.50;;;39.40;36.90;;;;;;5000405;28;20492;-81
2021/01/26 01:00:22;;;;;;;2.28;0.50;;;39.30;36.20;;;;;;5003564;28;20878;-80
2021/01/26 01:02:49;;;;;;;1.10;0.40;;;39.30;37.00;;;;;;5006892;28;20407;-79
2021/01/26 01:05:18;;;;;;;2.85;0.65;;;39.50;35.90;;;;;;5009103;28;20383;-79
2021/01/26 01:07:45;;;;;;;1.00;0.40;;;39.00;34.10;;;;;;5007826;28;20415;-79
2021/01/26 01:10:17;;;;;;;2.75;0.50;;;39.20;35.90;;;;;;5008277;28;20402;-79
2021/01/26 01:12:44;;;;;;;1.13;0.40;;;39.00;37.90;;;;;;5008535;28;20403;-80
2021/01/26 01:15:11;;;;;;;2.42;0.50;;;38.90;34.50;;;;;;4990241;28;20769;-80
2021/01/26 01:17:38;;;;;;;2.47;0.65;;;38.90;36.20;;;;;;5009475;28;20442;-81
2021/01/26 01:20:10;;;;;;;0.70;0.40;;;38.90;36.30;;;;;;4998752;28;20429;-80
2021/01/26 01:22:37;;;;;;;3.15;0.65;;;38.80;34.30;;;;;;5009580;28;20415;-80
2021/01/26 01:25:05;;;;;;;4.55;0.40;;;38.20;35.50;;;;;;5010291;28;20390;-80
2021/01/26 01:27:32;;;;;;;0.83;0.43;;;37.90;39.20;;;;;;5010077;28;20934;-80
2021/01/26 01:30:00;;;;;;;1.55;0.50;;;37.60;38.30;;;;;;5007470;28;20486;-80
2021/01/26 01:32:26;;;;;;;1.40;0.40;;;37.50;37.10;;;;;;5006645;28;20391;-80
2021/01/26 01:34:53;;;;;;;4.03;0.45;;;37.40;41.10;;;;;;4979573;28;20539;-79
2021/01/26 01:37:20;;;;;;;0.95;0.50;;;37.30;38.00;;;;;;5001644;28;20766;-80
2021/01/26 01:39:47;;;;;;;2.77;0.57;;;37.30;39.30;;;;;;5009147;28;20407;-80
2021/01/26 01:42:15;;;;;;;2.20;0.50;;;37.40;38.00;;;;;;5004679;28;20813;-80
2021/01/26 01:44:42;;;;;;;2.55;0.50;;;37.30;39.60;;;;;;5008725;28;20854;-81
2021/01/26 01:47:30;;;;;;;1.30;0.50;;;37.30;37.40;;;;;;5007515;28;20821;-79
2021/01/26 01:50:00;;;;;;;2.75;0.90;;;37.30;36.80;;;;;;5008974;28;20947;-79
2021/01/26 01:53:14;;;;;;;1.30;0.40;;;37.10;36.60;;;;;;5004092;28;20407;-81
2021/01/26 01:55:48;;;;;;;1.63;0.52;;;37.00;37.10;;;;;;4974620;28;20432;-79
2021/01/26 01:58:20;;;;;;;1.90;0.40;;;36.90;37.70;;;;;;4986057;28;20389;-79
2021/01/26 02:00:56;;;;;;;2.10;0.40;;;36.80;37.10;;;;;;4986083;28;20400;-79
2021/01/26 02:03:28;;;;;;;0.93;0.40;;;36.80;38.20;;;;;;4971899;28;20761;-79
2021/01/26 02:05:57;;;;;;;1.98;0.45;;;36.80;36.10;;;;;;4986098;28;20415;-80
2021/01/26 02:08:53;;;;;;;1.13;0.40;;;36.70;35.80;;;;;;4983964;28;20914;-80
2021/01/26 02:11:22;;;;;;;2.38;0.70;;;36.70;38.60;;;;;;4986586;28;20389;-82
2021/01/26 02:13:50;;;;;;;1.25;0.50;;;36.80;39.30;;;;;;4989666;28;20396;-80
2021/01/26 02:16:29;;;;;;;2.03;0.55;;;36.80;36.70;;;;;;4988459;28;20455;-79
2021/01/26 02:19:27;;;;;;;2.90;0.40;;;37.00;38.60;;;;;;4988112;28;20896;-81
2021/01/26 02:22:41;;;;;;;1.08;0.50;;;37.10;38.60;;;;;;4988504;28;20440;-80
2021/01/26 02:25:29;;;;;;;1.17;0.45;;;37.20;37.20;;;;;;4987960;28;20900;-79
2021/01/26 02:28:45;;;;;;;2.80;0.40;;;37.30;38.00;;;;;;4989307;28;20548;-79
2021/01/26 02:31:31;;;;;;;2.60;0.40;;;37.40;40.10;;;;;;4989574;28;20893;-80
2021/01/26 02:34:06;;;;;;;2.50;0.60;;;37.30;37.30;;;;;;4989272;28;20389;-79
2021/01/26 02:36:52;;;;;;;2.28;0.45;;;37.30;37.10;;;;;;4989757;28;20791;-79
2021/01/26 02:39:43;;;;;;;1.10;0.40;;;37.20;39.40;;;;;;4989463;28;20376;-80
2021/01/26 02:42:13;;;;;;;2.58;0.40;;;37.20;36.80;;;;;;4989152;28;20412;-80
2021/01/26 02:44:58;;;;;;;0.68;0.38;;;37.20;36.80;;;;;;4989577;28;20380;-80
2021/01/26 02:47:46;;;;;;;2.72;0.70;;;37.20;36.00;;;;;;4988368;28;20411;-80
2021/01/26 02:50:28;;;;;;;3.63;0.73;;;37.10;36.30;;;;;;4989575;28;20381;-80
2021/01/26 02:53:29;;;;;;;2.27;0.40;;;37.10;36.60;;;;;;4989242;28;20385;-79
2021/01/26 02:56:05;;;;;;;1.20;0.40;;;37.10;37.90;;;;;;4989761;28;20483;-81
2021/01/26 02:58:35;;;;;;;1.77;0.32;;;37.20;37.30;;;;;;4989558;28;20425;-81
2021/01/26 03:01:05;;;;;;;2.87;0.43;;;37.20;36.40;;;;;;4991263;28;20396;-79
2021/01/26 03:03:50;;;;;;;3.38;0.55;;;37.20;36.50;;;;;;4993164;28;20519;-80
2021/01/26 03:06:22;;;;;;;2.42;0.40;;;37.50;36.40;;;;;;4991633;28;21207;-80
2021/01/26 03:09:14;;;;;;;2.80;0.45;;;37.60;36.30;;;;;;4991521;28;20416;-80
2021/01/26 03:12:05;;;;;;;1.33;0.40;;;37.60;37.10;;;;;;4991335;28;20459;-81
2021/01/26 03:14:44;;;;;;;1.63;0.40;;;37.50;40.20;;;;;;4991729;28;20700;-80
2021/01/26 03:17:50;;;;;;;1.00;0.30;;;37.50;36.30;;;;;;4991475;28;20408;-79
2021/01/26 03:20:37;;;;;;;2.17;0.40;;;37.50;36.60;;;;;;4939545;28;20421;-79
2021/01/26 03:23:29;;;;;;;1.35;0.40;;;37.50;36.40;;;;;;4983220;28;20416;-79
2021/01/26 03:25:56;;;;;;;1.50;0.30;;;37.30;35.50;;;;;;4988196;28;20758;-79
2021/01/26 03:28:26;;;;;;;1.60;0.50;;;37.50;36.00;;;;;;4984858;28;20416;-80
2021/01/26 03:30:59;;;;;;;3.40;0.45;;;37.50;36.90;;;;;;4992220;28;20396;-80
2021/01/26 03:33:40;;;;;;;4.32;0.50;;;37.50;37.40;;;;;;4991848;28;20388;-79
2021/01/26 03:36:07;;;;;;;2.50;0.43;;;37.40;35.10;;;;;;4989754;28;20401;-80
2021/01/26 03:38:35;;;;;;;1.42;0.40;;;37.50;35.40;;;;;;4985064;28;20400;-80
2021/01/26 03:41:05;;;;;;;4.15;0.50;;;37.50;36.60;;;;;;4991377;28;20392;-80
2021/01/26 03:43:32;;;;;;;4.03;0.65;;;37.50;34.30;;;;;;4989862;28;20381;-78
2021/01/26 03:46:10;;;;;;;1.80;0.45;;;37.40;35.70;;;;;;4987808;28;20400;-79
2021/01/26 03:49:08;;;;;;;0.90;0.40;;;37.50;37.00;;;;;;4990894;28;20503;-78
2021/01/26 03:52:00;;;;;;;3.20;0.50;;;37.50;34.30;;;;;;4979345;28;21180;-79
2021/01/26 03:54:41;;;;;;;1.10;0.50;;;37.50;35.00;;;;;;4988504;28;20955;-80
2021/01/26 03:57:22;;;;;;;2.67;0.57;;;37.40;34.50;;;;;;4988684;28;20393;-79
2021/01/26 03:59:55;;;;;;;2.50;0.40;;;37.10;35.10;;;;;;4993179;28;20396;-80
2021/01/26 04:02:33;;;;;;;0.93;0.30;;;36.90;36.00;;;;;;4982178;28;20397;-80
2021/01/26 04:05:38;;;;;;;1.10;0.50;;;37.00;36.90;;;;;;4990226;28;20396;-80
2021/01/26 04:08:10;;;;;;;1.10;0.32;;;37.20;35.30;;;;;;4933863;28;20421;-82
2021/01/26 04:10:42;;;;;;;1.48;0.32;;;37.20;35.70;;;;;;4988940;28;20550;-80
2021/01/26 04:13:14;;;;;;;1.20;0.43;;;37.10;35.60;;;;;;4987078;28;20884;-79
2021/01/26 04:15:54;;;;;;;1.13;0.40;;;37.10;36.00;;;;;;4986574;28;20776;-80
2021/01/26 04:18:41;;;;;;;1.52;0.50;;;37.00;36.60;;;;;;4986363;28;20914;-79
2021/01/26 04:21:10;;;;;;;2.15;0.90;;;37.10;34.90;;;;;;4984568;28;20426;-80
2021/01/26 04:23:39;;;;;;;1.90;0.40;;;37.40;34.70;;;;;;4986505;28;20825;-79
2021/01/26 04:26:18;;;;;;;1.77;0.50;;;37.60;34.50;;;;;;4987679;28;20394;-80
2021/01/26 04:28:49;;;;;;;2.60;0.30;;;37.40;33.00;;;;;;4988202;28;20428;-81
2021/01/26 04:31:18;;;;;;;2.15;0.40;;;37.20;34.90;;;;;;4988081;28;20400;-79
2021/01/26 04:33:46;;;;;;;1.00;0.38;;;36.90;37.00;;;;;;4985036;28;20408;-79
2021/01/26 04:36:16;;;;;;;2.90;0.30;;;36.80;35.50;;;;;;4986775;28;21148;-79
2021/01/26 04:38:43;;;;;;;2.00;0.40;;;36.90;35.50;;;;;;4990934;28;20381;-79
2021/01/26 04:41:12;;;;;;;1.80;0.38;;;37.10;36.30;;;;;;4990122;28;20397;-81
2021/01/26 04:43:55;;;;;;;2.03;0.32;;;37.30;34.90;;;;;;4991023;28;20436;-80
2021/01/26 04:47:15;;;;;;;2.00;0.50;;;37.40;35.10;;;;;;4990979;28;20388;-80
2021/01/26 04:50:02;;;;;;;2.15;0.55;;;37.20;34.50;;;;;;4928734;29;20468;-81
2021/01/26 04:53:01;;;;;;;4.45;0.50;;;36.90;35.20;;;;;;4975564;28;20417;-79
2021/01/26 04:56:08;;;;;;;1.50;0.43;;;36.60;35.40;;;;;;4920719;28;20877;-79
2021/01/26 04:58:51;;;;;;;3.08;0.50;;;36.40;34.70;;;;;;4972213;28;20401;-79
2021/01/26 05:01:36;;;;;;;0.60;0.30;;;36.40;35.20;;;;;;4972109;28;20383;-80
2021/01/26 05:04:41;;;;;;;2.03;0.40;;;36.50;36.60;;;;;;4982878;28;20531;-82
2021/01/26 05:07:16;;;;;;;0.83;0.30;;;36.70;35.20;;;;;;4957731;28;20501;-78
2021/01/26 05:10:00;;;;;;;0.95;0.40;;;36.80;35.40;;;;;;4990351;28;20397;-80
2021/01/26 05:12:34;;;;;;;3.13;0.50;;;37.00;33.20;;;;;;4990426;28;20461;-79
2021/01/26 05:15:03;;;;;;;4.32;0.60;;;37.10;35.40;;;;;;4990895;28;20828;-80
2021/01/26 05:17:46;;;;;;;3.88;0.50;;;37.40;35.80;;;;;;4990832;28;20431;-79
2021/01/26 05:20:19;;;;;;;0.90;0.35;;;37.60;35.40;;;;;;4975410;28;20573;-80
2021/01/26 05:22:52;;;;;;;3.10;0.50;;;37.70;34.30;;;;;;4977124;28;20408;-79
2021/01/26 05:25:22;;;;;;;1.25;0.47;;;37.80;35.40;;;;;;4989107;28;20397;-80
2021/01/26 05:27:50;;;;;;;1.45;0.43;;;37.70;35.60;;;;;;4990716;28;20788;-80
2021/01/26 05:30:31;;;;;;;2.47;0.40;;;37.40;34.50;;;;;;4990288;28;20373;-80
2021/01/26 05:33:02;;;;;;;2.08;0.30;;;37.20;35.50;;;;;;4987597;28;20499;-80
2021/01/26 05:35:30;;;;;;;4.30;0.57;;;36.90;35.80;;;;;;4986398;28;20488;-81
2021/01/26 05:37:57;;;;;;;4.80;0.60;;;36.80;36.10;;;;;;4989068;28;20421;-79
2021/01/26 05:40:31;;;;;;;1.98;0.50;;;36.90;36.00;;;;;;4987074;28;20406;-79
2021/01/26 05:43:04;;;;;;;1.17;0.50;;;37.00;35.50;;;;;;4987817;28;20400;-80
2021/01/26 05:45:43;;;;;;;3.42;0.70;;;36.90;35.00;;;;;;4988790;28;20505;-80
2021/01/26 05:48:16;;;;;;;1.30;0.90;;;36.90;34.30;;;;;;4977157;28;20416;-78
2021/01/26 05:50:44;;;;;;;2.80;0.80;;;36.70;34.90;;;;;;4988982;28;20479;-82
2021/01/26 05:53:33;;;;;;;3.13;0.65;;;36.60;35.50;;;;;;4987431;28;20423;-80
2021/01/26 05:56:17;;;;;;;1.73;1.15;;;36.60;35.40;;;;;;4989234;28;20397;-80
2021/01/26 05:58:49;;;;;;;2.37;1.83;;;36.40;35.70;;;;;;4988262;28;20901;-79
2021/01/26 06:01:28;;;;;;;2.28;1.98;;;36.30;36.00;;;;;;4987901;28;20428;-80
2021/01/26 06:04:29;;;;;;;3.88;1.60;;;36.30;35.90;;;;;;4986002;28;20895;-79
2021/01/26 06:07:01;;;;;;;4.13;0.70;;;36.40;36.60;;;;;;4977052;28;20846;-80
2021/01/26 06:09:45;;;;;;;3.72;0.60;;;36.40;35.70;;;;;;4987817;28;21079;-79
2021/01/26 06:12:21;;;;;;;1.30;0.47;;;36.20;35.30;;;;;;4988181;28;20978;-79
2021/01/26 06:14:59;;;;;;;2.67;0.50;;;36.00;35.90;;;;;;4988827;28;20496;-80
2021/01/26 06:17:32;;;;;;;1.05;0.40;;;35.90;35.80;;;;;;4988202;28;20409;-79
2021/01/26 06:20:20;;;;;;;2.25;0.82;;;35.80;36.80;;;;;;4979883;28;20409;-79
2021/01/26 06:22:49;;;;;;;2.92;0.57;;;35.70;37.10;;;;;;4989453;28;21039;-80
2021/01/26 06:25:32;;;;;;;6.80;1.70;;;35.70;37.90;;;;;;4989425;28;20377;-79
2021/01/26 06:28:12;;;;;;;4.23;1.40;;;35.70;44.20;;;;;;4989935;28;20441;-79
2021/01/26 06:30:46;;;;;;;7.60;1.70;;;35.30;45.70;;;;;;4989492;28;20381;-80
2021/01/26 06:33:47;;;;;;;5.70;2.00;;;34.90;48.20;;;;;;4988463;28;20501;-80
2021/01/26 06:36:28;;;;;;;7.37;1.87;;;34.30;49.80;;;;;;4991808;28;20396;-79
2021/01/26 06:39:36;;;;;;;5.53;1.50;;;34.10;51.50;;;;;;4992212;28;20385;-81
2021/01/26 06:42:15;;;;;;;5.20;1.60;;;34.00;51.40;;;;;;4927370;29;20410;-80
2021/01/26 06:44:59;;;;;;;7.25;1.92;;;33.90;51.90;;;;;;4984571;28;20388;-79
2021/01/26 06:47:44;;;;;;;5.75;1.50;;;33.90;50.80;;;;;;4984993;28;20406;-81
2021/01/26 06:50:17;;;;;;;7.47;2.10;;;33.80;50.90;;;;;;4991962;28;20404;-79
2021/01/26 06:52:53;;;;;;;6.45;1.90;;;33.70;52.90;;;;;;4991071;28;20763;-79
2021/01/26 06:55:47;;;;;;;8.85;2.10;;;33.60;53.70;;;;;;4989405;28;20484;-79
2021/01/26 06:58:42;;;;;;;6.50;2.00;;;33.40;54.00;;;;;;4989349;28;20799;-78
2021/01/26 07:01:27;;;;;;;11.73;2.17;;;33.20;55.60;;;;;;4992159;28;20396;-78
2021/01/26 07:04:31;;;;;;;7.78;2.20;;;33.00;54.30;;;;;;4988383;28;20483;-80
2021/01/26 07:06:58;;;;;;;8.15;1.80;;;32.80;55.50;;;;;;4986246;28;20405;-79
2021/01/26 07:09:37;;;;;;;7.43;2.10;;;32.60;56.20;;;;;;4983810;28;20393;-77
2021/01/26 07:12:22;;;;;;;6.80;2.13;;;32.40;57.20;;;;;;4978331;28;20390;-77
2021/01/26 07:15:07;;;;;;;9.57;2.40;;;32.20;57.80;;;;;;4986449;28;20586;-77
2021/01/26 07:17:48;;;;;;;7.63;2.50;;;32.00;58.50;;;;;;4985909;28;20831;-79
2021/01/26 07:20:38;;;;;;;10.05;2.85;;;31.90;59.40;;;;;;4979407;28;20411;-79
2021/01/26 07:23:11;;;;;;;8.68;2.40;;;31.70;60.00;;;;;;4990886;28;20419;-78
2021/01/26 07:25:48;;;;;;;8.40;2.35;;;31.50;60.20;;;;;;4988428;28;20432;-79
2021/01/26 07:28:51;;;;;;;9.70;2.38;;;31.40;61.10;;;;;;4989735;28;20462;-79
2021/01/26 07:31:28;;;;;;;14.07;2.30;;;31.40;61.40;;;;;;4990098;28;20492;-80
2021/01/26 07:34:05;;;;;;;7.32;2.20;;;31.30;62.10;;;;;;4988455;28;20407;-80
2021/01/26 07:36:42;;;;;;;8.73;2.28;;;31.20;61.90;;;;;;4982349;28;20821;-80
2021/01/26 07:39:26;;;;;;;7.57;2.10;;;31.10;62.40;;;;;;4987222;28;20408;-80
2021/01/26 07:42:02;;;;;;;7.32;2.10;;;31.10;62.20;;;;;;4984074;28;20399;-79
2021/01/26 07:44:49;;;;;;;9.55;2.25;;;31.00;61.90;;;;;;4985098;28;20963;-79
2021/01/26 07:47:42;;;;;;;5.43;1.85;;;31.00;61.80;;;;;;4957188;28;20397;-79
2021/01/26 07:50:30;;;;;;;9.52;2.30;;;31.00;61.60;;;;;;4981096;28;20452;-79
2021/01/26 07:53:02;;;;;;;5.05;1.70;;;30.90;62.90;;;;;;4987568;28;20566;-79
2021/01/26 07:55:50;;;;;;;7.07;1.90;;;30.80;62.30;;;;;;4990449;28;20404;-83
2021/01/26 07:58:17;;;;;;;5.80;1.75;;;30.80;63.10;;;;;;4989221;28;20400;-80
2021/01/26 08:00:51;;;;;;;6.13;1.90;;;30.80;62.50;;;;;;4977182;28;20904;-80
2021/01/26 08:03:29;;;;;;;6.18;1.90;;;30.70;62.30;;;;;;4989382;28;20393;-80
2021/01/26 08:05:58;;;;;;;8.90;1.97;;;30.70;63.50;;;;;;4955451;28;20471;-80
2021/01/26 08:08:33;;;;;;;8.10;1.90;;;30.60;63.40;;;;;;4987606;28;20437;-81
2021/01/26 08:11:13;;;;;;;8.40;1.97;;;30.50;62.60;;;;;;4979979;28;20764;-81
2021/01/26 08:13:54;;;;;;;9.83;1.97;;;30.50;63.20;;;;;;4990281;28;20481;-81
2021/01/26 08:16:52;;;;;;;6.38;1.92;;;30.40;63.50;;;;;;4990852;28;20383;-81
2021/01/26 08:19:24;;;;;;;8.68;2.00;;;30.40;62.80;;;;;;4993516;28;20379;-80
2021/01/26 08:21:53;;;;;;;10.30;1.90;;;30.30;63.10;;;;;;5004075;28;20404;-80
2021/01/26 08:24:26;;;;;;;5.25;2.10;;;30.20;63.30;;;;;;4979169;28;20406;-81
2021/01/26 08:26:56;;;;;;;8.77;2.15;;;30.20;63.80;;;;;;4999095;28;20404;-81
2021/01/26 08:29:41;;;;;;;9.75;2.47;;;30.10;64.10;;;;;;4985066;28;20436;-80
2021/01/26 08:32:26;;;;;;;9.90;2.50;;;30.10;64.20;;;;;;4988809;28;20405;-81
2021/01/26 08:35:02;;;;;;;8.47;2.60;;;30.00;64.30;;;;;;4989386;28;20395;-80
2021/01/26 08:37:42;;;;;;;7.38;2.67;;;30.00;64.80;;;;;;4991059;28;20397;-80
2021/01/26 08:40:16;;;;;;;9.00;2.40;;;30.00;65.20;;;;;;4991156;28;20424;-80
2021/01/26 08:42:44;;;;;;;9.32;2.40;;;29.90;65.00;;;;;;4990728;28;20490;-81
2021/01/26 08:45:11;;;;;;;8.70;2.38;;;29.90;65.00;;;;;;4971895;28;20417;-81
2021/01/26 08:47:46;;;;;;;7.47;2.20;;;30.00;64.90;;;;;;4971774;28;20489;-80
2021/01/26 08:50:14;;;;;;;7.80;2.17;;;29.90;65.10;;;;;;4987286;28;20432;-80
2021/01/26 08:52:41;;;;;;;9.15;2.53;;;29.80;65.70;;;;;;4987679;28;20428;-80
2021/01/26 08:55:09;;;;;;;8.23;1.90;;;29.80;66.00;;;;;;4988811;28;20413;-80
2021/01/26 08:57:36;;;;;;;8.60;2.38;;;29.70;66.40;;;;;;4991228;28;20384;-82
2021/01/26 09:00:15;;;;;;;8.68;2.40;;;29.70;66.00;;;;;;4990752;28;20420;-79
2021/01/26 09:02:52;;;;;;;11.13;2.72;;;29.70;66.10;;;;;;4971336;28;20521;-80
2021/01/26 09:05:40;;;;;;;9.70;2.47;;;29.70;66.20;;;;;;4971512;28;20397;-81
2021/01/26 09:08:08;;;;;;;5.53;2.40;;;29.60;66.20;;;;;;4971473;28;20977;-81
2021/01/26 09:10:53;;;;;;;6.07;2.40;;;29.60;66.20;;;;;;4971443;28;20749;-80
2021/01/26 09:13:33;;;;;;;7.50;2.42;;;29.50;66.90;;;;;;4977410;28;20391;-80
2021/01/26 09:16:11;;;;;;;5.85;2.42;;;29.50;67.40;;;;;;4990634;28;20389;-80
2021/01/26 09:18:38;;;;;;;11.23;2.60;;;29.50;67.70;;;;;;4981731;28;20386;-80
2021/01/26 09:21:12;;;;;;;8.75;2.72;;;29.40;67.50;;;;;;4985353;28;20397;-80
2021/01/26 09:23:44;;;;;;;9.43;2.50;;;29.50;67.30;;;;;;4984476;28;20456;-80
2021/01/26 09:26:17;;;;;;;9.40;2.72;;;29.50;67.20;;;;;;4979372;28;20423;-80
2021/01/26 09:28:49;;;;;;;9.15;2.50;;;29.40;68.20;;;;;;4982126;28;20504;-80
2021/01/26 09:31:19;;;;;;;8.50;2.70;;;29.40;68.20;;;;;;4981487;28;20491;-80
2021/01/26 09:33:46;;;;;;;8.23;2.40;;;29.40;67.90;;;;;;4986770;28;20838;-80
2021/01/26 09:36:19;;;;;;;8.02;2.63;;;29.40;68.80;;;;;;4985108;28;20530;-80
2021/01/26 09:38:49;;;;;;;7.00;2.47;;;29.30;69.30;;;;;;4980578;28;20427;-81
2021/01/26 09:41:18;;;;;;;7.70;2.43;;;29.30;70.40;;;;;;4982811;28;20396;-80
2021/01/26 09:43:48;;;;;;;7.47;2.30;;;29.20;71.60;;;;;;4982417;28;20405;-82
2021/01/26 09:46:38;;;;;;;7.65;2.45;;;29.00;75.20;;;;;;4984471;28;20429;-82
2021/01/26 09:49:08;;;;;;;9.30;2.55;;;28.90;76.30;;;;;;4984171;28;20759;-80
2021/01/26 09:51:41;;;;;;;5.10;2.30;;;28.70;77.90;;;;;;4979672;28;20402;-81
2021/01/26 09:54:25;;;;;;;9.05;2.47;;;28.50;79.30;;;;;;4983111;28;20420;-80
2021/01/26 09:56:53;;;;;;;4.43;2.17;;;28.40;80.70;;;;;;4980997;28;20451;-81
2021/01/26 09:59:21;;;;;;;6.88;2.50;;;28.40;79.80;;;;;;4986102;28;21132;-80
2021/01/26 10:01:50;;;;;;;6.53;2.38;;;28.40;80.70;;;;;;4985157;28;20899;-81
2021/01/26 10:04:20;;;;;;;8.52;2.35;;;28.40;80.20;;;;;;4984501;28;20417;-80
2021/01/26 10:06:59;;;;;;;7.40;2.22;;;28.40;81.10;;;;;;4985496;28;20427;-81
2021/01/26 10:09:29;;;;;;;6.80;2.40;;;28.40;81.50;;;;;;4987076;28;20426;-80
2021/01/26 10:12:19;;;;;;;7.43;1.92;;;28.50;79.90;;;;;;4981711;28;20965;-81
2021/01/26 10:15:18;;;;;;;8.73;1.90;;;28.60;77.70;;;;;;4993955;28;20885;-81
2021/01/26 10:17:50;;;;;;;4.70;1.60;;;28.80;76.30;;;;;;4999715;28;20453;-81
2021/01/26 10:20:38;;;;;;;5.93;1.42;;;28.80;75.30;;;;;;4981818;28;20458;-81
2021/01/26 10:23:17;;;;;;;8.65;1.70;;;28.90;75.20;;;;;;4984106;28;20760;-81
2021/01/26 10:25:45;;;;;;;7.03;1.80;;;28.90;75.10;;;;;;4985754;28;20779;-79
2021/01/26 10:28:20;;;;;;;6.72;1.75;;;28.90;75.60;;;;;;4984552;28;20416;-81
2021/01/26 10:30:48;;;;;;;8.63;2.05;;;28.90;75.70;;;;;;4966983;28;20479;-80
2021/01/26 10:33:37;;;;;;;6.20;2.03;;;28.80;76.20;;;;;;4985428;28;20978;-80
2021/01/26 10:36:31;;;;;;;6.70;2.22;;;28.80;76.50;;;;;;4985144;28;20401;-80
2021/01/26 10:39:18;;;;;;;8.00;2.28;;;28.70;76.40;;;;;;4984520;28;20416;-81
2021/01/26 10:41:45;;;;;;;8.88;1.90;;;28.70;77.60;;;;;;4979852;28;20892;-80
2021/01/26 10:44:14;;;;;;;6.68;1.80;;;28.70;75.80;;;;;;4978853;28;20408;-81
2021/01/26 10:46:47;;;;;;;5.23;1.90;;;28.80;75.70;;;;;;4981442;28;20428;-80
2021/01/26 10:49:17;;;;;;;6.32;2.00;;;28.70;76.60;;;;;;4985785;28;20476;-80
2021/01/26 10:51:45;;;;;;;6.28;2.00;;;28.60;76.50;;;;;;4991392;28;20395;-80
2021/01/26 10:54:12;;;;;;;7.88;1.60;;;28.60;76.10;;;;;;4986239;28;20824;-80
2021/01/26 10:56:42;;;;;;;5.30;1.48;;;28.50;75.30;;;;;;4964480;28;20987;-81
2021/01/26 10:59:09;;;;;;;5.25;1.60;;;28.60;74.70;;;;;;4984326;28;20408;-81
2021/01/26 11:01:43;;;;;;;4.78;1.30;;;28.60;74.50;;;;;;4987684;28;20490;-80
2021/01/26 11:04:10;;;;;;;4.38;1.55;;;28.50;74.60;;;;;;4986968;28;20406;-80
2021/01/26 11:06:38;;;;;;;6.20;1.55;;;28.60;74.00;;;;;;4987687;28;20444;-80
2021/01/26 11:09:06;;;;;;;5.40;1.70;;;28.50;73.90;;;;;;4988895;28;20776;-80
2021/01/26 11:11:34;;;;;;;5.28;1.52;;;28.50;74.40;;;;;;4984025;28;20459;-80
2021/01/26 11:14:03;;;;;;;5.63;1.67;;;28.40;75.00;;;;;;4977563;28;20401;-79
2021/01/26 11:16:30;;;;;;;7.10;1.90;;;28.30;75.60;;;;;;4987700;28;20397;-80
2021/01/26 11:18:59;;;;;;;6.75;1.92;;;28.20;76.60;;;;;;4984788;28;20429;-79
2021/01/26 11:21:27;;;;;;;10.25;2.15;;;28.00;77.60;;;;;;4989447;28;20933;-79
2021/01/26 11:23:55;;;;;;;8.55;2.13;;;27.90;78.60;;;;;;4989343;28;21096;-79
2021/01/26 11:26:24;;;;;;;6.57;2.10;;;27.70;79.30;;;;;;4988821;28;20432;-79
2021/01/26 11:28:52;;;;;;;8.27;3.20;;;27.50;80.40;;;;;;4991932;28;20511;-80
2021/01/26 11:31:20;;;;;;;12.53;4.70;;;27.10;81.40;;;;;;4990949;28;20819;-80
2021/01/26 11:33:48;;;;;;;13.30;5.15;;;26.90;82.20;;;;;;4990228;28;20440;-80
2021/01/26 11:36:15;;;;;;;15.25;6.32;;;26.70;83.80;;;;;;4984466;28;20475;-79
2021/01/26 11:38:42;;;;;;;11.23;5.88;;;26.60;85.00;;;;;;4991953;28;20405;-78
2021/01/26 11:41:10;;;;;;;15.77;7.72;;;26.50;86.10;;;;;;4992399;28;20884;-79
2021/01/26 11:43:37;;;;;;;18.02;10.80;;;26.30;87.00;;;;;;4992315;28;20395;-79
2021/01/26 11:46:06;;;;;;;23.70;14.88;;;26.20;88.10;;;;;;4988432;28;20488;-79
2021/01/26 11:48:34;;;;;;;25.05;16.50;;;26.00;89.30;;;;;;4986514;28;20421;-79
2021/01/26 11:51:01;;;;;;;24.88;17.30;;;25.70;90.40;;;;;;4985011;28;20393;-79
2021/01/26 11:53:29;;;;;;;25.08;16.58;;;25.60;91.20;;;;;;4981993;28;20406;-79
2021/01/26 11:55:58;;;;;;;29.38;18.92;;;25.50;91.30;;;;;;4982792;28;20396;-79
2021/01/26 11:58:26;;;;;;;30.77;18.83;;;25.40;92.00;;;;;;4981714;28;20966;-80
2021/01/26 12:00:54;;;;;;;26.00;17.03;;;25.30;92.50;;;;;;4976646;28;21933;-79
2021/01/26 12:03:21;;;;;;;28.33;17.98;;;25.20;93.00;;;;;;4978388;28;20399;-80
2021/01/26 12:05:48;;;;;;;24.63;16.15;;;25.00;93.60;;;;;;4983111;28;22062;-80
2021/01/26 12:08:16;;;;;;;26.83;15.20;;;24.90;94.00;;;;;;4984647;28;20433;-80
2021/01/26 12:10:43;;;;;;;28.45;15.00;;;24.80;94.30;;;;;;4987543;28;20963;-80
2021/01/26 12:13:11;;;;;;;23.77;13.63;;;24.80;94.70;;;;;;4986085;28;20472;-79
2021/01/26 12:15:43;;;;;;;25.00;13.45;;;24.70;95.00;;;;;;4985647;28;20401;-78
2021/01/26 12:18:11;;;;;;;20.98;11.85;;;24.60;95.50;;;;;;4986418;28;20393;-79
2021/01/26 12:20:38;;;;;;;23.40;12.38;;;24.50;96.10;;;;;;4989755;28;20907;-79
2021/01/26 12:23:06;;;;;;;22.73;11.10;;;24.40;96.50;;;;;;4991090;28;20403;-79
2021/01/26 12:25:35;;;;;;;21.52;10.05;;;24.50;96.60;;;;;;4988494;28;20404;-79
2021/01/26 12:28:04;;;;;;;21.80;10.73;;;24.30;96.90;;;;;;4990985;28;20413;-79
2021/01/26 12:30:31;;;;;;;26.30;11.30;;;24.30;97.40;;;;;;4982913;28;20873;-79
2021/01/26 12:32:58;;;;;;;25.23;10.70;;;24.20;98.00;;;;;;4967549;28;20413;-79
2021/01/26 12:35:34;;;;;;;30.40;11.73;;;24.10;98.90;;;;;;4989724;28;20405;-79
2021/01/26 12:38:03;;;;;;;25.38;11.80;;;24.00;99.50;;;;;;4990838;28;20484;-79
2021/01/26 12:40:31;;;;;;;28.13;12.15;;;24.00;99.90;;;;;;4970444;28;20505;-79
2021/01/26 12:42:58;;;;;;;29.45;13.48;;;23.90;99.90;;;;;;4989946;28;20431;-80
2021/01/26 12:45:28;;;;;;;27.58;13.73;;;23.70;99.90;;;;;;4991009;28;20483;-79
2021/01/26 12:47:55;;;;;;;34.47;14.55;;;23.50;99.90;;;;;;4990394;28;20436;-78
2021/01/26 12:50:27;;;;;;;32.25;15.40;;;23.30;99.90;;;;;;4990881;28;20392;-79
2021/01/26 12:52:54;;;;;;;34.23;15.00;;;23.20;99.90;;;;;;4989330;28;20739;-79
2021/01/26 12:55:21;;;;;;;33.70;13.85;;;23.10;99.90;;;;;;4990579;28;20397;-80
2021/01/26 12:57:48;;;;;;;34.63;13.25;;;23.10;99.90;;;;;;4991166;28;20396;-80
2021/01/26 13:00:17;;;;;;;28.23;11.57;;;23.10;99.90;;;;;;4990754;28;20387;-80
2021/01/26 13:02:45;;;;;;;29.50;12.00;;;23.10;99.90;;;;;;4990424;28;20389;-80
2021/01/26 13:05:13;;;;;;;25.23;12.07;;;23.10;99.90;;;;;;4990694;28;20380;-79
2021/01/26 13:07:40;;;;;;;30.77;12.40;;;23.10;99.90;;;;;;4990709;28;20475;-79
2021/01/26 13:10:09;;;;;;;31.10;12.00;;;23.20;99.90;;;;;;4994367;28;20397;-79
2021/01/26 13:12:36;;;;;;;33.07;11.87;;;23.10;99.90;;;;;;4995401;28;20447;-79
2021/01/26 13:15:04;;;;;;;30.67;11.60;;;23.10;99.90;;;;;;4990182;28;20503;-79
2021/01/26 13:17:31;;;;;;;29.38;10.75;;;23.20;99.90;;;;;;4986392;28;20407;-79
2021/01/26 13:19:58;;;;;;;26.90;10.80;;;23.20;99.90;;;;;;4987106;28;20400;-79
2021/01/26 13:22:25;;;;;;;27.70;10.80;;;23.20;99.90;;;;;;4988901;28;20413;-79
2021/01/26 13:24:53;;;;;;;27.50;9.68;;;23.30;99.90;;;;;;4985595;28;20419;-80